sensor_id;sensor_type;location;lat;lon;timestamp;P1;durP1;ratioP1;P2;durP2;ratioP2
34573;SDS011;20809;49.594;8.734;2023-07-31T00:02:22;3.95;;;1.60;;
34573;SDS011;20809;49.594;8.734;2023-07-31T00:05:22;5.38;;;1.45;;
34573;SDS011;20809;49.594;8.734;2023-07-31T00:08:23;10.38;;;1.75;;
34573;SDS011;20809;49.594;8.734;2023-07-31T00:11:24;1.52;;;1.23;;
34573;SDS011;20809;49.594;8.734;2023-07-31T00:14:25;5.30;;;1.40;;
34573;SDS011;20809;49.594;8.734;2023-07-31T00:17:26;2.75;;;1.17;;
34573;SDS011;20809;49.594;8.734;2023-07-31T00:20:27;2.78;;;1.25;;
34573;SDS011;20809;49.594;8.734;2023-07-31T00:26:29;3.03;;;1.33;;
34573;SDS011;20809;49.594;8.734;2023-07-31T00:29:30;6.85;;;1.50;;
34573;SDS011;20809;49.594;8.734;2023-07-31T00:32:31;3.33;;;1.45;;
34573;SDS011;20809;49.594;8.734;2023-07-31T00:35:31;5.78;;;1.25;;
34573;SDS011;20809;49.594;8.734;2023-07-31T00:38:32;2.85;;;1.30;;
34573;SDS011;20809;49.594;8.734;2023-07-31T00:41:34;8.13;;;1.60;;
34573;SDS011;20809;49.594;8.734;2023-07-31T00:44:36;3.03;;;1.63;;
34573;SDS011;20809;49.594;8.734;2023-07-31T00:47:41;2.75;;;1.50;;
34573;SDS011;20809;49.594;8.734;2023-07-31T00:50:43;4.85;;;1.45;;
34573;SDS011;20809;49.594;8.734;2023-07-31T00:53:45;4.63;;;1.45;;
34573;SDS011;20809;49.594;8.734;2023-07-31T00:59:09;3.20;;;1.50;;
34573;SDS011;20809;49.594;8.734;2023-07-31T01:02:11;2.78;;;1.30;;
34573;SDS011;20809;49.594;8.734;2023-07-31T01:05:16;2.55;;;1.70;;
34573;SDS011;20809;49.594;8.734;2023-07-31T01:11:56;4.67;;;1.63;;
34573;SDS011;20809;49.594;8.734;2023-07-31T01:18:11;4.88;;;1.52;;
34573;SDS011;20809;49.594;8.734;2023-07-31T01:24:40;5.10;;;1.77;;
34573;SDS011;20809;49.594;8.734;2023-07-31T01:28:19;3.85;;;1.60;;
34573;SDS011;20809;49.594;8.734;2023-07-31T01:31:24;3.10;;;1.35;;
34573;SDS011;20809;49.594;8.734;2023-07-31T01:34:28;3.10;;;1.40;;
34573;SDS011;20809;49.594;8.734;2023-07-31T01:37:31;4.13;;;1.70;;
34573;SDS011;20809;49.594;8.734;2023-07-31T01:40:33;2.60;;;1.40;;
34573;SDS011;20809;49.594;8.734;2023-07-31T01:43:35;3.85;;;1.48;;
34573;SDS011;20809;49.594;8.734;2023-07-31T01:46:37;6.95;;;1.75;;
34573;SDS011;20809;49.594;8.734;2023-07-31T01:49:39;7.85;;;1.83;;
34573;SDS011;20809;49.594;8.734;2023-07-31T01:52:41;6.95;;;1.67;;
34573;SDS011;20809;49.594;8.734;2023-07-31T01:55:43;6.38;;;1.63;;
34573;SDS011;20809;49.594;8.734;2023-07-31T01:58:45;3.38;;;1.50;;
34573;SDS011;20809;49.594;8.734;2023-07-31T02:01:46;3.60;;;1.50;;
34573;SDS011;20809;49.594;8.734;2023-07-31T02:04:48;9.35;;;1.88;;
34573;SDS011;20809;49.594;8.734;2023-07-31T02:07:50;6.05;;;2.20;;
34573;SDS011;20809;49.594;8.734;2023-07-31T02:10:53;4.85;;;1.90;;
34573;SDS011;20809;49.594;8.734;2023-07-31T02:13:58;5.72;;;1.50;;
34573;SDS011;20809;49.594;8.734;2023-07-31T02:17:00;4.65;;;2.13;;
34573;SDS011;20809;49.594;8.734;2023-07-31T02:20:03;3.60;;;1.80;;
34573;SDS011;20809;49.594;8.734;2023-07-31T02:23:05;5.45;;;1.80;;
34573;SDS011;20809;49.594;8.734;2023-07-31T02:26:07;4.78;;;1.48;;
34573;SDS011;20809;49.594;8.734;2023-07-31T02:29:09;6.72;;;1.80;;
34573;SDS011;20809;49.594;8.734;2023-07-31T02:32:11;4.20;;;1.75;;
34573;SDS011;20809;49.594;8.734;2023-07-31T02:35:15;4.47;;;1.25;;
34573;SDS011;20809;49.594;8.734;2023-07-31T02:38:18;6.47;;;1.80;;
34573;SDS011;20809;49.594;8.734;2023-07-31T02:41:23;5.05;;;1.65;;
34573;SDS011;20809;49.594;8.734;2023-07-31T02:44:25;6.47;;;1.63;;
34573;SDS011;20809;49.594;8.734;2023-07-31T02:47:27;5.85;;;1.50;;
34573;SDS011;20809;49.594;8.734;2023-07-31T02:50:30;8.93;;;1.85;;
34573;SDS011;20809;49.594;8.734;2023-07-31T02:53:32;5.45;;;1.48;;
34573;SDS011;20809;49.594;8.734;2023-07-31T02:56:34;5.15;;;1.77;;
34573;SDS011;20809;49.594;8.734;2023-07-31T02:59:36;2.58;;;1.55;;
34573;SDS011;20809;49.594;8.734;2023-07-31T03:02:38;3.38;;;1.50;;
34573;SDS011;20809;49.594;8.734;2023-07-31T03:05:40;6.47;;;1.90;;
34573;SDS011;20809;49.594;8.734;2023-07-31T03:08:42;3.50;;;1.60;;
34573;SDS011;20809;49.594;8.734;2023-07-31T03:11:43;4.47;;;1.30;;
34573;SDS011;20809;49.594;8.734;2023-07-31T03:14:45;4.15;;;1.65;;
34573;SDS011;20809;49.594;8.734;2023-07-31T03:17:47;4.75;;;1.70;;
34573;SDS011;20809;49.594;8.734;2023-07-31T03:20:49;3.75;;;1.50;;
34573;SDS011;20809;49.594;8.734;2023-07-31T03:23:51;4.75;;;1.65;;
34573;SDS011;20809;49.594;8.734;2023-07-31T03:26:52;2.70;;;1.45;;
34573;SDS011;20809;49.594;8.734;2023-07-31T03:29:54;5.78;;;2.47;;
34573;SDS011;20809;49.594;8.734;2023-07-31T03:32:56;5.53;;;1.77;;
34573;SDS011;20809;49.594;8.734;2023-07-31T03:35:57;3.55;;;1.38;;
34573;SDS011;20809;49.594;8.734;2023-07-31T03:38:59;4.35;;;1.48;;
34573;SDS011;20809;49.594;8.734;2023-07-31T03:42:01;4.65;;;1.98;;
34573;SDS011;20809;49.594;8.734;2023-07-31T03:45:03;4.38;;;1.80;;
34573;SDS011;20809;49.594;8.734;2023-07-31T03:48:05;2.75;;;1.48;;
34573;SDS011;20809;49.594;8.734;2023-07-31T03:51:08;4.90;;;2.42;;
34573;SDS011;20809;49.594;8.734;2023-07-31T03:54:09;7.82;;;1.98;;
34573;SDS011;20809;49.594;8.734;2023-07-31T03:57:17;3.22;;;1.42;;
34573;SDS011;20809;49.594;8.734;2023-07-31T04:00:26;3.90;;;1.58;;
34573;SDS011;20809;49.594;8.734;2023-07-31T04:03:28;3.17;;;1.88;;
34573;SDS011;20809;49.594;8.734;2023-07-31T04:06:31;3.80;;;1.30;;
34573;SDS011;20809;49.594;8.734;2023-07-31T04:09:32;3.47;;;1.70;;
34573;SDS011;20809;49.594;8.734;2023-07-31T04:12:34;4.45;;;1.52;;
34573;SDS011;20809;49.594;8.734;2023-07-31T04:15:35;5.28;;;1.95;;
34573;SDS011;20809;49.594;8.734;2023-07-31T04:18:37;4.35;;;1.50;;
34573;SDS011;20809;49.594;8.734;2023-07-31T04:21:38;5.95;;;1.95;;
34573;SDS011;20809;49.594;8.734;2023-07-31T04:24:38;4.75;;;1.65;;
34573;SDS011;20809;49.594;8.734;2023-07-31T04:27:39;6.55;;;1.60;;
34573;SDS011;20809;49.594;8.734;2023-07-31T04:30:40;6.20;;;1.80;;
34573;SDS011;20809;49.594;8.734;2023-07-31T04:33:41;3.65;;;1.60;;
34573;SDS011;20809;49.594;8.734;2023-07-31T04:36:41;6.20;;;1.90;;
34573;SDS011;20809;49.594;8.734;2023-07-31T04:39:42;3.50;;;1.87;;
34573;SDS011;20809;49.594;8.734;2023-07-31T04:42:42;2.75;;;1.60;;
34573;SDS011;20809;49.594;8.734;2023-07-31T04:45:46;2.65;;;1.60;;
34573;SDS011;20809;49.594;8.734;2023-07-31T04:48:47;4.95;;;2.30;;
34573;SDS011;20809;49.594;8.734;2023-07-31T04:51:48;7.68;;;2.00;;
34573;SDS011;20809;49.594;8.734;2023-07-31T04:54:49;6.88;;;1.92;;
34573;SDS011;20809;49.594;8.734;2023-07-31T04:57:49;8.32;;;1.98;;
34573;SDS011;20809;49.594;8.734;2023-07-31T05:00:50;6.25;;;1.75;;
34573;SDS011;20809;49.594;8.734;2023-07-31T05:03:51;5.03;;;1.90;;
34573;SDS011;20809;49.594;8.734;2023-07-31T05:06:51;6.43;;;2.08;;
34573;SDS011;20809;49.594;8.734;2023-07-31T05:09:52;3.88;;;1.80;;
34573;SDS011;20809;49.594;8.734;2023-07-31T05:12:53;5.20;;;1.77;;
34573;SDS011;20809;49.594;8.734;2023-07-31T05:15:53;3.53;;;1.25;;
34573;SDS011;20809;49.594;8.734;2023-07-31T05:18:54;6.18;;;2.28;;
34573;SDS011;20809;49.594;8.734;2023-07-31T05:21:55;2.70;;;1.83;;
34573;SDS011;20809;49.594;8.734;2023-07-31T05:24:55;3.83;;;1.75;;
34573;SDS011;20809;49.594;8.734;2023-07-31T05:27:56;4.13;;;1.75;;
34573;SDS011;20809;49.594;8.734;2023-07-31T05:31:09;4.00;;;1.90;;
34573;SDS011;20809;49.594;8.734;2023-07-31T05:34:43;5.13;;;1.90;;
34573;SDS011;20809;49.594;8.734;2023-07-31T05:37:44;3.88;;;2.10;;
34573;SDS011;20809;49.594;8.734;2023-07-31T05:40:45;3.22;;;1.60;;
34573;SDS011;20809;49.594;8.734;2023-07-31T05:43:47;3.80;;;1.83;;
34573;SDS011;20809;49.594;8.734;2023-07-31T05:46:47;3.42;;;1.52;;
34573;SDS011;20809;49.594;8.734;2023-07-31T05:49:50;3.05;;;1.90;;
34573;SDS011;20809;49.594;8.734;2023-07-31T05:52:53;3.72;;;1.98;;
34573;SDS011;20809;49.594;8.734;2023-07-31T05:55:54;3.50;;;1.75;;
34573;SDS011;20809;49.594;8.734;2023-07-31T05:58:55;6.70;;;2.13;;
34573;SDS011;20809;49.594;8.734;2023-07-31T06:01:57;3.65;;;1.77;;
34573;SDS011;20809;49.594;8.734;2023-07-31T06:04:57;5.47;;;1.98;;
34573;SDS011;20809;49.594;8.734;2023-07-31T06:07:58;6.18;;;2.15;;
34573;SDS011;20809;49.594;8.734;2023-07-31T06:10:59;5.47;;;2.05;;
34573;SDS011;20809;49.594;8.734;2023-07-31T06:13:59;3.70;;;1.90;;
34573;SDS011;20809;49.594;8.734;2023-07-31T06:17:00;4.70;;;2.22;;
34573;SDS011;20809;49.594;8.734;2023-07-31T06:20:00;4.88;;;2.10;;
34573;SDS011;20809;49.594;8.734;2023-07-31T06:23:01;4.15;;;2.00;;
34573;SDS011;20809;49.594;8.734;2023-07-31T06:26:03;6.20;;;1.73;;
34573;SDS011;20809;49.594;8.734;2023-07-31T06:29:04;3.55;;;2.17;;
34573;SDS011;20809;49.594;8.734;2023-07-31T06:32:04;3.53;;;1.70;;
34573;SDS011;20809;49.594;8.734;2023-07-31T06:35:06;6.60;;;2.50;;
34573;SDS011;20809;49.594;8.734;2023-07-31T06:38:07;5.00;;;1.88;;
34573;SDS011;20809;49.594;8.734;2023-07-31T06:41:07;3.47;;;1.70;;
34573;SDS011;20809;49.594;8.734;2023-07-31T06:44:08;4.95;;;2.78;;
34573;SDS011;20809;49.594;8.734;2023-07-31T06:47:08;4.55;;;1.90;;
34573;SDS011;20809;49.594;8.734;2023-07-31T06:50:09;5.85;;;2.13;;
34573;SDS011;20809;49.594;8.734;2023-07-31T06:53:10;2.75;;;2.13;;
34573;SDS011;20809;49.594;8.734;2023-07-31T06:56:10;4.22;;;1.75;;
34573;SDS011;20809;49.594;8.734;2023-07-31T06:59:11;4.88;;;1.63;;
34573;SDS011;20809;49.594;8.734;2023-07-31T07:02:12;6.03;;;2.10;;
34573;SDS011;20809;49.594;8.734;2023-07-31T07:05:12;4.78;;;1.88;;
34573;SDS011;20809;49.594;8.734;2023-07-31T07:08:13;2.60;;;1.55;;
34573;SDS011;20809;49.594;8.734;2023-07-31T07:11:14;5.95;;;2.35;;
34573;SDS011;20809;49.594;8.734;2023-07-31T07:14:14;4.35;;;1.88;;
34573;SDS011;20809;49.594;8.734;2023-07-31T07:17:15;3.15;;;1.83;;
34573;SDS011;20809;49.594;8.734;2023-07-31T07:20:16;4.80;;;1.98;;
34573;SDS011;20809;49.594;8.734;2023-07-31T07:23:17;2.92;;;1.73;;
34573;SDS011;20809;49.594;8.734;2023-07-31T07:29:20;2.38;;;1.45;;
34573;SDS011;20809;49.594;8.734;2023-07-31T07:32:20;5.85;;;2.00;;
34573;SDS011;20809;49.594;8.734;2023-07-31T07:35:21;5.68;;;1.85;;
34573;SDS011;20809;49.594;8.734;2023-07-31T07:38:22;4.78;;;1.80;;
34573;SDS011;20809;49.594;8.734;2023-07-31T07:41:22;5.22;;;2.10;;
34573;SDS011;20809;49.594;8.734;2023-07-31T07:44:23;4.63;;;1.95;;
34573;SDS011;20809;49.594;8.734;2023-07-31T07:47:24;3.03;;;1.40;;
34573;SDS011;20809;49.594;8.734;2023-07-31T07:50:25;3.72;;;2.38;;
34573;SDS011;20809;49.594;8.734;2023-07-31T07:53:25;2.20;;;1.67;;
34573;SDS011;20809;49.594;8.734;2023-07-31T07:56:26;5.80;;;1.45;;
34573;SDS011;20809;49.594;8.734;2023-07-31T07:59:27;4.75;;;2.10;;
34573;SDS011;20809;49.594;8.734;2023-07-31T08:02:28;3.80;;;1.92;;
34573;SDS011;20809;49.594;8.734;2023-07-31T08:05:29;4.30;;;1.90;;
34573;SDS011;20809;49.594;8.734;2023-07-31T08:08:30;3.47;;;2.08;;
34573;SDS011;20809;49.594;8.734;2023-07-31T08:11:31;5.13;;;2.05;;
34573;SDS011;20809;49.594;8.734;2023-07-31T08:14:33;5.05;;;2.25;;
34573;SDS011;20809;49.594;8.734;2023-07-31T08:17:35;2.35;;;1.50;;
34573;SDS011;20809;49.594;8.734;2023-07-31T08:20:35;3.13;;;1.73;;
34573;SDS011;20809;49.594;8.734;2023-07-31T08:23:36;2.97;;;1.98;;
34573;SDS011;20809;49.594;8.734;2023-07-31T08:26:37;2.58;;;1.85;;
34573;SDS011;20809;49.594;8.734;2023-07-31T08:29:37;3.22;;;1.83;;
34573;SDS011;20809;49.594;8.734;2023-07-31T08:32:41;5.70;;;2.05;;
34573;SDS011;20809;49.594;8.734;2023-07-31T08:35:42;3.83;;;1.85;;
34573;SDS011;20809;49.594;8.734;2023-07-31T08:38:43;4.38;;;2.00;;
34573;SDS011;20809;49.594;8.734;2023-07-31T08:41:45;4.43;;;1.90;;
34573;SDS011;20809;49.594;8.734;2023-07-31T08:44:46;3.70;;;2.30;;
34573;SDS011;20809;49.594;8.734;2023-07-31T08:47:48;5.35;;;2.15;;
34573;SDS011;20809;49.594;8.734;2023-07-31T08:50:51;3.88;;;2.20;;
34573;SDS011;20809;49.594;8.734;2023-07-31T08:53:53;4.43;;;2.03;;
34573;SDS011;20809;49.594;8.734;2023-07-31T08:59:54;4.85;;;2.10;;
34573;SDS011;20809;49.594;8.734;2023-07-31T09:02:59;7.15;;;2.20;;
34573;SDS011;20809;49.594;8.734;2023-07-31T09:06:03;4.22;;;1.85;;
34573;SDS011;20809;49.594;8.734;2023-07-31T09:09:06;7.13;;;2.45;;
34573;SDS011;20809;49.594;8.734;2023-07-31T09:15:07;3.80;;;1.97;;
34573;SDS011;20809;49.594;8.734;2023-07-31T09:18:08;4.70;;;2.42;;
34573;SDS011;20809;49.594;8.734;2023-07-31T09:21:09;3.58;;;2.17;;
34573;SDS011;20809;49.594;8.734;2023-07-31T09:24:10;4.60;;;2.10;;
34573;SDS011;20809;49.594;8.734;2023-07-31T09:27:43;3.75;;;1.90;;
34573;SDS011;20809;49.594;8.734;2023-07-31T09:30:48;5.35;;;2.35;;
34573;SDS011;20809;49.594;8.734;2023-07-31T09:33:55;5.75;;;2.03;;
34573;SDS011;20809;49.594;8.734;2023-07-31T09:36:58;3.60;;;2.17;;
34573;SDS011;20809;49.594;8.734;2023-07-31T09:40:02;4.20;;;2.08;;
34573;SDS011;20809;49.594;8.734;2023-07-31T09:46:04;2.58;;;1.80;;
34573;SDS011;20809;49.594;8.734;2023-07-31T09:49:14;5.20;;;2.35;;
34573;SDS011;20809;49.594;8.734;2023-07-31T09:52:15;5.85;;;2.28;;
34573;SDS011;20809;49.594;8.734;2023-07-31T09:58:16;2.47;;;2.03;;
34573;SDS011;20809;49.594;8.734;2023-07-31T10:04:17;4.80;;;2.40;;
34573;SDS011;20809;49.594;8.734;2023-07-31T10:07:23;6.00;;;2.08;;
34573;SDS011;20809;49.594;8.734;2023-07-31T10:13:58;6.55;;;2.40;;
34573;SDS011;20809;49.594;8.734;2023-07-31T10:16:59;10.20;;;2.97;;
34573;SDS011;20809;49.594;8.734;2023-07-31T10:20:02;6.40;;;2.72;;
34573;SDS011;20809;49.594;8.734;2023-07-31T10:23:04;6.43;;;2.42;;
34573;SDS011;20809;49.594;8.734;2023-07-31T10:26:07;5.50;;;2.25;;
34573;SDS011;20809;49.594;8.734;2023-07-31T10:29:08;2.80;;;2.30;;
34573;SDS011;20809;49.594;8.734;2023-07-31T10:32:09;5.03;;;2.33;;
34573;SDS011;20809;49.594;8.734;2023-07-31T10:35:11;9.73;;;2.90;;
34573;SDS011;20809;49.594;8.734;2023-07-31T10:38:12;4.43;;;2.47;;
34573;SDS011;20809;49.594;8.734;2023-07-31T10:41:13;4.78;;;2.75;;
34573;SDS011;20809;49.594;8.734;2023-07-31T10:47:17;4.65;;;2.53;;
34573;SDS011;20809;49.594;8.734;2023-07-31T10:53:24;7.57;;;2.63;;
34573;SDS011;20809;49.594;8.734;2023-07-31T10:56:26;5.75;;;2.65;;
34573;SDS011;20809;49.594;8.734;2023-07-31T11:02:28;7.50;;;3.60;;
34573;SDS011;20809;49.594;8.734;2023-07-31T11:08:58;3.40;;;2.20;;
34573;SDS011;20809;49.594;8.734;2023-07-31T11:14:59;5.03;;;2.30;;
34573;SDS011;20809;49.594;8.734;2023-07-31T11:21:03;4.68;;;2.30;;
34573;SDS011;20809;49.594;8.734;2023-07-31T11:24:03;4.28;;;2.53;;
34573;SDS011;20809;49.594;8.734;2023-07-31T11:30:07;7.07;;;2.95;;
34573;SDS011;20809;49.594;8.734;2023-07-31T11:33:09;7.00;;;3.00;;
34573;SDS011;20809;49.594;8.734;2023-07-31T11:36:14;8.00;;;2.58;;
34573;SDS011;20809;49.594;8.734;2023-07-31T11:39:16;4.30;;;2.70;;
34573;SDS011;20809;49.594;8.734;2023-07-31T11:45:17;7.30;;;2.77;;
34573;SDS011;20809;49.594;8.734;2023-07-31T11:48:39;6.75;;;3.10;;
34573;SDS011;20809;49.594;8.734;2023-07-31T11:51:40;5.65;;;2.88;;
34573;SDS011;20809;49.594;8.734;2023-07-31T11:57:41;4.93;;;2.17;;
34573;SDS011;20809;49.594;8.734;2023-07-31T12:00:45;5.63;;;2.47;;
34573;SDS011;20809;49.594;8.734;2023-07-31T12:06:47;4.53;;;2.40;;
34573;SDS011;20809;49.594;8.734;2023-07-31T12:09:52;6.90;;;2.60;;
34573;SDS011;20809;49.594;8.734;2023-07-31T12:12:59;4.93;;;2.47;;
34573;SDS011;20809;49.594;8.734;2023-07-31T12:16:03;3.73;;;2.70;;
34573;SDS011;20809;49.594;8.734;2023-07-31T12:19:05;5.95;;;2.47;;
34573;SDS011;20809;49.594;8.734;2023-07-31T12:22:13;5.03;;;2.15;;
34573;SDS011;20809;49.594;8.734;2023-07-31T12:25:15;4.68;;;2.50;;
34573;SDS011;20809;49.594;8.734;2023-07-31T12:31:22;4.78;;;2.05;;
34573;SDS011;20809;49.594;8.734;2023-07-31T12:34:22;5.00;;;2.53;;
34573;SDS011;20809;49.594;8.734;2023-07-31T12:37:23;4.70;;;2.50;;
34573;SDS011;20809;49.594;8.734;2023-07-31T12:40:23;7.38;;;2.95;;
34573;SDS011;20809;49.594;8.734;2023-07-31T12:46:24;7.30;;;2.90;;
34573;SDS011;20809;49.594;8.734;2023-07-31T12:49:25;5.55;;;2.47;;
34573;SDS011;20809;49.594;8.734;2023-07-31T12:55:26;3.17;;;2.53;;
34573;SDS011;20809;49.594;8.734;2023-07-31T12:58:26;5.95;;;3.17;;
34573;SDS011;20809;49.594;8.734;2023-07-31T13:01:27;4.68;;;1.88;;
34573;SDS011;20809;49.594;8.734;2023-07-31T13:07:28;9.30;;;2.57;;
34573;SDS011;20809;49.594;8.734;2023-07-31T13:10:29;3.13;;;2.03;;
34573;SDS011;20809;49.594;8.734;2023-07-31T13:16:31;2.60;;;2.22;;
34573;SDS011;20809;49.594;8.734;2023-07-31T13:19:32;7.28;;;2.45;;
34573;SDS011;20809;49.594;8.734;2023-07-31T13:22:32;4.22;;;2.55;;
34573;SDS011;20809;49.594;8.734;2023-07-31T13:28:33;5.67;;;2.83;;
34573;SDS011;20809;49.594;8.734;2023-07-31T13:31:43;3.80;;;2.50;;
34573;SDS011;20809;49.594;8.734;2023-07-31T13:34:47;3.83;;;1.95;;
34573;SDS011;20809;49.594;8.734;2023-07-31T13:38:00;3.92;;;2.10;;
34573;SDS011;20809;49.594;8.734;2023-07-31T13:41:01;5.07;;;2.80;;
34573;SDS011;20809;49.594;8.734;2023-07-31T13:44:05;5.95;;;1.88;;
34573;SDS011;20809;49.594;8.734;2023-07-31T13:47:13;8.00;;;2.88;;
34573;SDS011;20809;49.594;8.734;2023-07-31T13:50:14;3.10;;;2.00;;
34573;SDS011;20809;49.594;8.734;2023-07-31T13:53:16;4.82;;;2.78;;
34573;SDS011;20809;49.594;8.734;2023-07-31T13:56:16;2.17;;;1.98;;
34573;SDS011;20809;49.594;8.734;2023-07-31T13:59:20;5.15;;;2.33;;
34573;SDS011;20809;49.594;8.734;2023-07-31T14:02:20;3.17;;;1.85;;
34573;SDS011;20809;49.594;8.734;2023-07-31T14:05:21;5.68;;;2.58;;
34573;SDS011;20809;49.594;8.734;2023-07-31T14:08:24;4.88;;;2.78;;
34573;SDS011;20809;49.594;8.734;2023-07-31T14:11:25;3.58;;;2.33;;
34573;SDS011;20809;49.594;8.734;2023-07-31T14:14:26;3.25;;;2.35;;
34573;SDS011;20809;49.594;8.734;2023-07-31T14:17:27;6.45;;;2.40;;
34573;SDS011;20809;49.594;8.734;2023-07-31T14:20:27;7.22;;;2.33;;
34573;SDS011;20809;49.594;8.734;2023-07-31T14:23:28;6.03;;;2.97;;
34573;SDS011;20809;49.594;8.734;2023-07-31T14:26:29;3.70;;;2.05;;
34573;SDS011;20809;49.594;8.734;2023-07-31T14:29:29;3.50;;;2.10;;
34573;SDS011;20809;49.594;8.734;2023-07-31T14:32:30;6.30;;;2.40;;
34573;SDS011;20809;49.594;8.734;2023-07-31T14:35:31;3.83;;;2.33;;
34573;SDS011;20809;49.594;8.734;2023-07-31T14:38:32;5.05;;;2.42;;
34573;SDS011;20809;49.594;8.734;2023-07-31T14:41:33;3.17;;;2.33;;
34573;SDS011;20809;49.594;8.734;2023-07-31T14:44:34;6.80;;;2.38;;
34573;SDS011;20809;49.594;8.734;2023-07-31T14:47:34;5.28;;;2.65;;
34573;SDS011;20809;49.594;8.734;2023-07-31T14:50:35;4.68;;;2.60;;
34573;SDS011;20809;49.594;8.734;2023-07-31T14:53:36;7.00;;;2.65;;
34573;SDS011;20809;49.594;8.734;2023-07-31T14:56:36;6.47;;;2.67;;
34573;SDS011;20809;49.594;8.734;2023-07-31T14:59:37;5.43;;;2.28;;
34573;SDS011;20809;49.594;8.734;2023-07-31T15:02:38;4.60;;;2.58;;
34573;SDS011;20809;49.594;8.734;2023-07-31T15:05:38;4.80;;;2.58;;
34573;SDS011;20809;49.594;8.734;2023-07-31T15:08:39;5.93;;;2.85;;
34573;SDS011;20809;49.594;8.734;2023-07-31T15:11:41;5.45;;;2.65;;
34573;SDS011;20809;49.594;8.734;2023-07-31T15:14:42;6.75;;;2.65;;
34573;SDS011;20809;49.594;8.734;2023-07-31T15:17:42;5.60;;;2.97;;
34573;SDS011;20809;49.594;8.734;2023-07-31T15:20:43;4.43;;;2.75;;
34573;SDS011;20809;49.594;8.734;2023-07-31T15:23:43;7.47;;;3.30;;
34573;SDS011;20809;49.594;8.734;2023-07-31T15:26:44;4.13;;;2.28;;
34573;SDS011;20809;49.594;8.734;2023-07-31T15:29:46;3.80;;;2.22;;
34573;SDS011;20809;49.594;8.734;2023-07-31T15:32:46;5.22;;;2.17;;
34573;SDS011;20809;49.594;8.734;2023-07-31T15:35:49;7.25;;;2.92;;
34573;SDS011;20809;49.594;8.734;2023-07-31T15:38:50;4.15;;;2.20;;
34573;SDS011;20809;49.594;8.734;2023-07-31T15:41:51;3.38;;;2.00;;
34573;SDS011;20809;49.594;8.734;2023-07-31T15:44:52;3.08;;;2.38;;
34573;SDS011;20809;49.594;8.734;2023-07-31T15:47:53;3.80;;;2.08;;
34573;SDS011;20809;49.594;8.734;2023-07-31T15:50:53;4.82;;;2.53;;
34573;SDS011;20809;49.594;8.734;2023-07-31T15:53:54;5.38;;;2.60;;
34573;SDS011;20809;49.594;8.734;2023-07-31T15:56:55;4.93;;;2.08;;
34573;SDS011;20809;49.594;8.734;2023-07-31T15:59:55;3.75;;;2.35;;
34573;SDS011;20809;49.594;8.734;2023-07-31T16:02:56;4.47;;;2.63;;
34573;SDS011;20809;49.594;8.734;2023-07-31T16:05:56;5.57;;;2.45;;
34573;SDS011;20809;49.594;8.734;2023-07-31T16:08:57;7.32;;;2.35;;
34573;SDS011;20809;49.594;8.734;2023-07-31T16:11:57;4.25;;;2.63;;
34573;SDS011;20809;49.594;8.734;2023-07-31T16:14:58;4.78;;;2.17;;
34573;SDS011;20809;49.594;8.734;2023-07-31T16:17:59;4.65;;;2.72;;
34573;SDS011;20809;49.594;8.734;2023-07-31T16:21:00;4.43;;;2.20;;
34573;SDS011;20809;49.594;8.734;2023-07-31T16:27:01;4.13;;;1.97;;
34573;SDS011;20809;49.594;8.734;2023-07-31T16:33:03;6.57;;;3.00;;
34573;SDS011;20809;49.594;8.734;2023-07-31T16:36:03;4.28;;;2.17;;
34573;SDS011;20809;49.594;8.734;2023-07-31T16:39:04;6.90;;;2.80;;
34573;SDS011;20809;49.594;8.734;2023-07-31T16:42:05;7.32;;;2.45;;
34573;SDS011;20809;49.594;8.734;2023-07-31T16:45:06;9.68;;;3.10;;
34573;SDS011;20809;49.594;8.734;2023-07-31T16:48:08;4.30;;;2.47;;
34573;SDS011;20809;49.594;8.734;2023-07-31T16:51:08;3.83;;;2.30;;
34573;SDS011;20809;49.594;8.734;2023-07-31T16:57:55;4.00;;;2.15;;
34573;SDS011;20809;49.594;8.734;2023-07-31T17:00:56;3.42;;;2.22;;
34573;SDS011;20809;49.594;8.734;2023-07-31T17:03:59;4.80;;;2.58;;
34573;SDS011;20809;49.594;8.734;2023-07-31T17:07:00;7.32;;;2.40;;
34573;SDS011;20809;49.594;8.734;2023-07-31T17:10:00;5.55;;;2.55;;
34573;SDS011;20809;49.594;8.734;2023-07-31T17:13:01;7.32;;;2.90;;
34573;SDS011;20809;49.594;8.734;2023-07-31T17:16:02;5.85;;;2.70;;
34573;SDS011;20809;49.594;8.734;2023-07-31T17:19:03;4.93;;;2.67;;
34573;SDS011;20809;49.594;8.734;2023-07-31T17:22:04;4.28;;;2.90;;
34573;SDS011;20809;49.594;8.734;2023-07-31T17:25:05;4.53;;;2.63;;
34573;SDS011;20809;49.594;8.734;2023-07-31T17:28:06;6.55;;;3.15;;
34573;SDS011;20809;49.594;8.734;2023-07-31T17:31:06;6.38;;;2.88;;
34573;SDS011;20809;49.594;8.734;2023-07-31T17:34:07;5.10;;;2.92;;
34573;SDS011;20809;49.594;8.734;2023-07-31T17:40:09;7.40;;;3.30;;
34573;SDS011;20809;49.594;8.734;2023-07-31T17:43:10;6.43;;;3.95;;
34573;SDS011;20809;49.594;8.734;2023-07-31T17:46:11;6.65;;;3.35;;
34573;SDS011;20809;49.594;8.734;2023-07-31T17:49:13;8.90;;;4.03;;
34573;SDS011;20809;49.594;8.734;2023-07-31T17:52:14;7.63;;;3.90;;
34573;SDS011;20809;49.594;8.734;2023-07-31T17:55:15;5.63;;;3.65;;
34573;SDS011;20809;49.594;8.734;2023-07-31T17:58:16;4.15;;;2.97;;
34573;SDS011;20809;49.594;8.734;2023-07-31T18:01:16;6.53;;;3.60;;
34573;SDS011;20809;49.594;8.734;2023-07-31T18:04:17;6.85;;;3.60;;
34573;SDS011;20809;49.594;8.734;2023-07-31T18:07:18;9.07;;;4.05;;
34573;SDS011;20809;49.594;8.734;2023-07-31T18:10:18;6.63;;;3.40;;
34573;SDS011;20809;49.594;8.734;2023-07-31T18:13:19;6.43;;;3.47;;
34573;SDS011;20809;49.594;8.734;2023-07-31T18:16:19;6.55;;;3.20;;
34573;SDS011;20809;49.594;8.734;2023-07-31T18:19:20;5.05;;;2.80;;
34573;SDS011;20809;49.594;8.734;2023-07-31T18:22:21;5.82;;;4.20;;
34573;SDS011;20809;49.594;8.734;2023-07-31T18:25:22;4.15;;;2.95;;
34573;SDS011;20809;49.594;8.734;2023-07-31T18:28:23;8.57;;;3.83;;
34573;SDS011;20809;49.594;8.734;2023-07-31T18:31:23;6.20;;;3.47;;
34573;SDS011;20809;49.594;8.734;2023-07-31T18:34:24;6.43;;;3.50;;
34573;SDS011;20809;49.594;8.734;2023-07-31T18:37:25;5.30;;;3.58;;
34573;SDS011;20809;49.594;8.734;2023-07-31T18:40:25;4.77;;;3.10;;
34573;SDS011;20809;49.594;8.734;2023-07-31T18:43:26;10.30;;;5.03;;
34573;SDS011;20809;49.594;8.734;2023-07-31T18:46:27;7.30;;;4.72;;
34573;SDS011;20809;49.594;8.734;2023-07-31T18:49:27;7.43;;;3.63;;
34573;SDS011;20809;49.594;8.734;2023-07-31T18:52:31;6.68;;;3.60;;
34573;SDS011;20809;49.594;8.734;2023-07-31T18:55:32;5.03;;;3.70;;
34573;SDS011;20809;49.594;8.734;2023-07-31T18:58:34;8.52;;;5.25;;
34573;SDS011;20809;49.594;8.734;2023-07-31T19:04:37;8.23;;;3.67;;
34573;SDS011;20809;49.594;8.734;2023-07-31T19:07:39;9.18;;;5.03;;
34573;SDS011;20809;49.594;8.734;2023-07-31T19:10:43;6.75;;;3.53;;
34573;SDS011;20809;49.594;8.734;2023-07-31T19:13:44;7.57;;;4.13;;
34573;SDS011;20809;49.594;8.734;2023-07-31T19:16:46;8.30;;;4.25;;
34573;SDS011;20809;49.594;8.734;2023-07-31T19:19:50;5.03;;;3.95;;
34573;SDS011;20809;49.594;8.734;2023-07-31T19:22:52;6.10;;;4.43;;
34573;SDS011;20809;49.594;8.734;2023-07-31T19:25:53;5.68;;;3.97;;
34573;SDS011;20809;49.594;8.734;2023-07-31T19:28:55;7.28;;;4.43;;
34573;SDS011;20809;49.594;8.734;2023-07-31T19:31:57;5.57;;;3.72;;
34573;SDS011;20809;49.594;8.734;2023-07-31T19:34:59;7.07;;;4.30;;
34573;SDS011;20809;49.594;8.734;2023-07-31T19:38:01;7.93;;;4.43;;
34573;SDS011;20809;49.594;8.734;2023-07-31T19:41:03;9.68;;;6.13;;
34573;SDS011;20809;49.594;8.734;2023-07-31T19:44:05;6.47;;;3.85;;
34573;SDS011;20809;49.594;8.734;2023-07-31T19:47:07;5.65;;;4.00;;
34573;SDS011;20809;49.594;8.734;2023-07-31T19:50:07;6.45;;;3.60;;
34573;SDS011;20809;49.594;8.734;2023-07-31T19:53:08;4.22;;;3.38;;
34573;SDS011;20809;49.594;8.734;2023-07-31T19:56:09;8.80;;;4.00;;
34573;SDS011;20809;49.594;8.734;2023-07-31T19:59:09;5.15;;;2.95;;